Дата Пункты Температура Давл., мм. Влажн., % Ветер Погодные явления
Воздуха Воды Направл. Скорость
21.03.19 02:00 Одесса 5.0 5.0 769 71 Пн-З 5 02 ГОДИНИ
20.03.19 11:00 Одесса 6.0 5.0 769 79 Пн 3 23 ГОДИНИ
20.03.19 08:00 Одесса 8.0 5.0 768 75 Пн 5 20 ГОДИН
20.03.19 05:00 Одесса 10.0 6.0 766 73 Пн 3 17 ГОДИН
20.03.19 02:00 Одесса 9.0 6.0 766 73 Пд 3 14 ГОДИН
20.03.19 11:00 Одесса 11.0 6.0 766 39 Пн-С 2 11 ГОДИН
20.03.19 08:00 Одесса 9.0 6.0 766 54 Пн-С 2 08 ГОДИН
20.03.19 05:00 Одесса 5.0 6.0 765 73 Пн 1 05 ГОДИН
20.03.19 02:00 Одесса 4.0 6.0 765 93 Пн 0 02 ГОДИНИ
19.03.19 11:00 Одесса 5.0 6.0 764 85 Пн 0 23 ГОДИНИ
19.03.19 08:00 Одесса 5.0 6.0 764 92 Пн 0 20 ГОДИН
19.03.19 05:00 Одесса 8.0 6.0 764 82 Пн 0 17 ГОДИН
19.03.19 02:00 Одесса 8.0 6.0 763 79 Пд-С 3 14 ГОДИН
19.03.19 11:00 Одесса 8.0 5.0 764 84 Пд-С 2 11 ГОДИН
19.03.19 08:00 Одесса 7.0 5.0 763 90 Пд-С 3 08 ГОДИН
19.03.19 05:00 Одесса 6.0 5.0 762 87 Пд 4 05 ГОДИН
19.03.19 02:00 Одесса 6.0 5.0 761 84 Пд 4 02 ГОДИНИ
18.03.19 11:00 Одесса 7.0 5.0 761 81 Пд 6 23 ГОДИНИ
18.03.19 08:00 Одесса 7.0 5.0 761 81 Пд 4 20 ГОДИН
18.03.19 05:00 Одесса 8.0 6.0 760 79 Пд 6 17 ГОДИН
Количество строк
1 2 3 4 5 6 7 8 9 10
Page 2 of 472